Time;durP1;ratioP1;P1;durP2;ratioP2;P2;SDS_P1;SDS_P2;PMS_P1;PMS_P2;Temp;Humidity;BMP_temperature;BMP_pressure;BME280_temperature;BME280_humidity;BME280_pressure;Samples;Min_cycle;Max_cycle;Signal;HPM_P1;HPM_P2
2021/01/08 00:01:54;;;;;;;;;;;3.10;77.40;;;;;;4910248;28;20375;-44
2021/01/08 00:04:21;;;;;;;;;;;3.10;77.60;;;;;;4915149;28;20016;-45
2021/01/08 00:06:53;;;;;;;;;;;3.10;77.50;;;;;;4913997;28;20275;-45
2021/01/08 00:09:19;;;;;;;;;;;3.10;77.30;;;;;;4911049;28;20611;-43
2021/01/08 00:11:46;;;;;;;;;;;3.10;77.20;;;;;;4916150;28;20367;-44
2021/01/08 00:14:12;;;;;;;;;;;3.10;77.20;;;;;;4912512;28;20061;-44
2021/01/08 00:16:38;;;;;;;;;;;3.10;77.00;;;;;;4914382;28;19937;-45
2021/01/08 00:19:05;;;;;;;;;;;3.00;77.00;;;;;;4913627;28;19933;-43
2021/01/08 00:21:38;;;;;;;;;;;3.00;77.20;;;;;;4914979;28;19926;-43
2021/01/08 00:24:05;;;;;;;;;;;3.00;77.00;;;;;;4912226;28;19940;-45
2021/01/08 00:26:31;;;;;;;;;;;3.00;77.20;;;;;;4909016;28;19933;-43
2021/01/08 00:28:57;;;;;;;;;;;2.90;77.20;;;;;;4914753;28;20113;-45
2021/01/08 00:31:24;;;;;;;;;;;2.90;77.50;;;;;;4900173;28;19937;-45
2021/01/08 00:33:50;;;;;;;;;;;2.90;77.40;;;;;;4908903;28;19934;-44
2021/01/08 00:36:16;;;;;;;;;;;2.80;77.70;;;;;;4912086;28;19941;-44
2021/01/08 00:38:42;;;;;;;;;;;2.80;77.90;;;;;;4916326;28;19926;-45
2021/01/08 00:41:09;;;;;;;;;;;2.80;77.90;;;;;;4914506;28;19973;-45
2021/01/08 00:43:35;;;;;;;;;;;2.80;78.00;;;;;;4913053;28;19926;-44
2021/01/08 00:46:01;;;;;;;;;;;2.80;78.10;;;;;;4913898;28;20318;-45
2021/01/08 00:48:28;;;;;;;;;;;2.80;78.00;;;;;;4916723;28;20430;-44
2021/01/08 00:51:00;;;;;;;;;;;2.70;78.20;;;;;;4915749;28;19934;-44
2021/01/08 00:53:26;;;;;;;;;;;2.70;78.50;;;;;;4911415;28;19938;-44
2021/01/08 00:55:52;;;;;;;;;;;2.80;78.40;;;;;;4914620;28;19956;-44
2021/01/08 00:58:19;;;;;;;;;;;2.80;78.40;;;;;;4917280;28;19969;-44
2021/01/08 01:00:45;;;;;;;;;;;2.80;78.20;;;;;;4913373;28;20019;-44
2021/01/08 01:03:12;;;;;;;;;;;2.70;78.40;;;;;;4910639;28;19942;-43
2021/01/08 01:05:40;;;;;;;;;;;2.80;78.30;;;;;;4909866;28;19934;-44
2021/01/08 01:08:07;;;;;;;;;;;2.70;78.20;;;;;;4918355;28;19931;-45
2021/01/08 01:10:34;;;;;;;;;;;2.80;78.00;;;;;;4911375;28;20326;-43
2021/01/08 01:13:00;;;;;;;;;;;2.70;78.20;;;;;;4910704;28;23016;-45
2021/01/08 01:15:29;;;;;;;;;;;2.70;78.20;;;;;;4911814;28;19934;-45
2021/01/08 01:17:55;;;;;;;;;;;2.70;78.10;;;;;;4913255;28;19936;-44
2021/01/08 01:20:21;;;;;;;;;;;2.70;78.40;;;;;;4912401;28;19941;-43
2021/01/08 01:23:01;;;;;;;;;;;2.80;78.30;;;;;;4906686;28;19937;-43
2021/01/08 01:25:27;;;;;;;;;;;2.80;78.10;;;;;;4914772;28;19930;-45
2021/01/08 01:27:54;;;;;;;;;;;2.70;78.40;;;;;;4911153;28;19934;-45
2021/01/08 01:30:21;;;;;;;;;;;2.70;78.40;;;;;;4913820;28;20139;-43
2021/01/08 01:32:50;;;;;;;;;;;2.80;78.80;;;;;;4911020;28;25744;-45
2021/01/08 01:35:16;;;;;;;;;;;2.80;78.90;;;;;;4913071;28;20430;-43
2021/01/08 01:37:42;;;;;;;;;;;2.80;79.00;;;;;;4912761;28;19926;-44
2021/01/08 01:40:08;;;;;;;;;;;2.80;78.90;;;;;;4911497;28;19926;-44
2021/01/08 01:42:35;;;;;;;;;;;2.80;79.00;;;;;;4910274;28;20236;-45
2021/01/08 01:45:01;;;;;;;;;;;2.80;79.10;;;;;;4910720;28;19933;-45
2021/01/08 01:47:28;;;;;;;;;;;2.90;79.20;;;;;;4913771;28;20010;-44
2021/01/08 01:49:55;;;;;;;;;;;2.90;79.10;;;;;;4908711;28;19933;-44
2021/01/08 01:52:21;;;;;;;;;;;3.00;79.00;;;;;;4903348;28;20001;-46
2021/01/08 01:54:47;;;;;;;;;;;3.00;78.90;;;;;;4913102;28;19930;-43
2021/01/08 01:57:14;;;;;;;;;;;3.00;78.90;;;;;;4913906;28;19934;-43
2021/01/08 01:59:40;;;;;;;;;;;3.00;78.90;;;;;;4908867;28;19934;-43
2021/01/08 02:02:10;;;;;;;;;;;3.10;79.00;;;;;;4905962;28;19934;-43
2021/01/08 02:04:36;;;;;;;;;;;3.00;78.70;;;;;;4906110;28;19940;-45
2021/01/08 02:07:03;;;;;;;;;;;3.00;78.80;;;;;;4913770;28;20485;-44
2021/01/08 02:09:30;;;;;;;;;;;3.00;79.00;;;;;;4904724;28;19930;-45
2021/01/08 02:11:57;;;;;;;;;;;2.90;79.30;;;;;;4906698;28;19941;-42
2021/01/08 02:14:26;;;;;;;;;;;3.00;79.50;;;;;;4909256;28;20016;-43
2021/01/08 02:16:52;;;;;;;;;;;2.90;79.70;;;;;;4910678;28;20288;-42
2021/01/08 02:19:32;;;;;;;;;;;2.90;79.90;;;;;;4906742;28;20453;-42
2021/01/08 02:22:03;;;;;;;;;;;2.90;80.10;;;;;;4907703;28;19933;-42
2021/01/08 02:24:52;;;;;;;;;;;2.90;80.10;;;;;;4908306;28;20294;-44
2021/01/08 02:27:18;;;;;;;;;;;3.00;79.90;;;;;;4909877;28;19933;-44
2021/01/08 02:29:45;;;;;;;;;;;3.00;79.60;;;;;;4910524;28;20283;-42
2021/01/08 02:32:12;;;;;;;;;;;3.00;79.60;;;;;;4907800;28;20160;-43
2021/01/08 02:34:38;;;;;;;;;;;3.00;79.50;;;;;;4913077;28;19934;-43
2021/01/08 02:37:06;;;;;;;;;;;3.00;79.50;;;;;;4912330;28;19930;-43
2021/01/08 02:39:32;;;;;;;;;;;2.90;79.60;;;;;;4908072;28;19933;-44
2021/01/08 02:41:59;;;;;;;;;;;2.90;79.70;;;;;;4910679;28;19934;-42
2021/01/08 02:44:25;;;;;;;;;;;2.90;79.70;;;;;;4912686;28;20413;-41
2021/01/08 02:46:51;;;;;;;;;;;3.00;79.60;;;;;;4915674;28;19926;-43
2021/01/08 02:49:18;;;;;;;;;;;3.00;79.50;;;;;;4902845;28;22096;-43
2021/01/08 02:51:45;;;;;;;;;;;3.00;79.40;;;;;;4903929;28;20021;-43
2021/01/08 02:54:12;;;;;;;;;;;2.90;79.80;;;;;;4913582;28;20386;-44
2021/01/08 02:56:41;;;;;;;;;;;2.90;79.90;;;;;;4909697;28;19926;-42
2021/01/08 02:59:08;;;;;;;;;;;2.90;80.00;;;;;;4912091;28;19926;-43
2021/01/08 03:01:35;;;;;;;;;;;2.90;80.10;;;;;;4908468;28;19957;-42
2021/01/08 03:04:02;;;;;;;;;;;2.90;80.10;;;;;;4906090;28;19926;-42
2021/01/08 03:06:28;;;;;;;;;;;3.00;80.00;;;;;;4912459;28;19969;-43
2021/01/08 03:08:58;;;;;;;;;;;3.00;80.00;;;;;;4908735;28;19934;-43
2021/01/08 03:11:25;;;;;;;;;;;3.00;79.80;;;;;;4901540;28;19926;-43
2021/01/08 03:13:53;;;;;;;;;;;3.00;79.70;;;;;;4911427;28;19941;-45
2021/01/08 03:16:19;;;;;;;;;;;3.00;79.70;;;;;;4901916;28;20397;-42
2021/01/08 03:18:46;;;;;;;;;;;3.00;79.80;;;;;;4917508;28;20024;-42
2021/01/08 03:21:12;;;;;;;;;;;3.00;79.70;;;;;;4912518;28;20473;-42
2021/01/08 03:23:38;;;;;;;;;;;3.00;79.80;;;;;;4909671;28;19942;-43
2021/01/08 03:26:05;;;;;;;;;;;2.90;79.90;;;;;;4910359;28;19926;-43
2021/01/08 03:28:32;;;;;;;;;;;2.90;79.90;;;;;;4914299;28;19933;-43
2021/01/08 03:30:58;;;;;;;;;;;2.90;80.10;;;;;;4912422;28;19942;-43
2021/01/08 03:33:24;;;;;;;;;;;2.90;80.30;;;;;;4912543;28;19934;-46
2021/01/08 03:35:55;;;;;;;;;;;2.90;80.20;;;;;;4909244;28;19933;-45
2021/01/08 03:38:21;;;;;;;;;;;2.90;80.30;;;;;;4911229;28;19926;-43
2021/01/08 03:40:47;;;;;;;;;;;2.90;80.20;;;;;;4922072;28;19985;-44
2021/01/08 03:43:13;;;;;;;;;;;2.90;80.20;;;;;;4902848;28;19938;-43
2021/01/08 03:45:39;;;;;;;;;;;2.90;80.30;;;;;;4912833;28;19926;-42
2021/01/08 03:48:06;;;;;;;;;;;2.90;80.30;;;;;;4908270;28;19934;-42
2021/01/08 03:50:32;;;;;;;;;;;3.00;80.20;;;;;;4911516;28;19957;-42
2021/01/08 03:52:59;;;;;;;;;;;2.90;80.10;;;;;;4912415;28;20274;-45
2021/01/08 03:55:25;;;;;;;;;;;2.90;80.30;;;;;;4912527;28;19930;-43
2021/01/08 03:57:51;;;;;;;;;;;2.90;80.30;;;;;;4919349;28;20329;-45
2021/01/08 04:00:18;;;;;;;;;;;3.00;80.50;;;;;;4913940;28;21351;-44
2021/01/08 04:02:44;;;;;;;;;;;3.00;80.30;;;;;;4907559;28;19934;-45
2021/01/08 04:05:10;;;;;;;;;;;3.00;80.20;;;;;;4916151;28;19937;-44
2021/01/08 04:07:37;;;;;;;;;;;3.00;80.30;;;;;;4917551;28;19930;-44
2021/01/08 04:10:04;;;;;;;;;;;3.10;80.20;;;;;;4928052;28;20299;-45
2021/01/08 04:12:30;;;;;;;;;;;3.10;80.30;;;;;;4897460;28;19937;-45
2021/01/08 04:14:56;;;;;;;;;;;3.10;80.30;;;;;;4911374;28;19933;-44
2021/01/08 04:17:23;;;;;;;;;;;3.10;80.20;;;;;;4909534;28;19937;-44
2021/01/08 04:19:49;;;;;;;;;;;3.10;80.10;;;;;;4910720;28;19934;-44
2021/01/08 04:22:15;;;;;;;;;;;3.20;80.10;;;;;;4913002;28;19926;-43
2021/01/08 04:24:41;;;;;;;;;;;3.20;79.90;;;;;;4902441;28;19938;-46
2021/01/08 04:27:07;;;;;;;;;;;3.30;79.80;;;;;;4914789;28;19938;-45
2021/01/08 04:29:34;;;;;;;;;;;3.20;79.70;;;;;;4896569;28;19999;-45
2021/01/08 04:32:00;;;;;;;;;;;3.20;79.80;;;;;;4887632;28;19934;-44
2021/01/08 04:34:27;;;;;;;;;;;3.20;80.00;;;;;;4899188;28;19982;-44
2021/01/08 04:36:53;;;;;;;;;;;3.20;80.00;;;;;;4895263;28;19935;-46
2021/01/08 04:39:19;;;;;;;;;;;3.20;79.90;;;;;;4895201;28;20025;-44
2021/01/08 04:41:45;;;;;;;;;;;3.10;80.10;;;;;;4898505;28;19926;-44
2021/01/08 04:44:12;;;;;;;;;;;3.10;80.30;;;;;;4893537;28;19977;-45
2021/01/08 04:46:41;;;;;;;;;;;3.10;80.50;;;;;;4909035;28;20429;-45
2021/01/08 04:49:08;;;;;;;;;;;3.10;80.50;;;;;;4895923;28;20314;-46
2021/01/08 04:51:35;;;;;;;;;;;3.00;80.70;;;;;;4895697;28;19927;-44
2021/01/08 04:54:04;;;;;;;;;;;3.00;80.80;;;;;;4897631;28;19941;-45
2021/01/08 04:56:49;;;;;;;;;;;3.00;80.90;;;;;;4897773;28;19936;-45
2021/01/08 04:59:16;;;;;;;;;;;3.00;81.00;;;;;;4916181;28;19926;-45
2021/01/08 05:01:42;;;;;;;;;;;3.00;80.90;;;;;;4910118;28;19957;-44
2021/01/08 05:04:09;;;;;;;;;;;3.00;80.90;;;;;;4886859;28;20367;-44
2021/01/08 05:06:36;;;;;;;;;;;3.00;81.10;;;;;;4914945;28;19940;-41
2021/01/08 05:09:02;;;;;;;;;;;3.00;81.20;;;;;;4910382;28;19934;-44
2021/01/08 05:11:30;;;;;;;;;;;3.10;81.00;;;;;;4913141;28;20374;-45
2021/01/08 05:14:00;;;;;;;;;;;3.10;80.90;;;;;;4912133;28;19941;-44
2021/01/08 05:16:27;;;;;;;;;;;3.10;80.90;;;;;;4915398;28;19926;-46
2021/01/08 05:18:55;;;;;;;;;;;3.10;80.80;;;;;;4914360;28;19930;-43
2021/01/08 05:21:25;;;;;;;;;;;3.20;80.80;;;;;;4914316;28;19981;-44
2021/01/08 05:23:52;;;;;;;;;;;3.20;80.70;;;;;;4912807;28;20708;-45
2021/01/08 05:26:19;;;;;;;;;;;3.20;80.50;;;;;;4913728;28;19938;-46
2021/01/08 05:28:50;;;;;;;;;;;3.20;80.50;;;;;;4907451;28;20428;-42
2021/01/08 05:31:17;;;;;;;;;;;3.20;80.60;;;;;;4913639;28;19930;-43
2021/01/08 05:33:43;;;;;;;;;;;3.20;80.70;;;;;;4914105;28;19964;-43
2021/01/08 05:36:11;;;;;;;;;;;3.20;80.80;;;;;;4914547;28;19930;-44
2021/01/08 05:38:41;;;;;;;;;;;3.30;80.70;;;;;;4909821;28;19962;-45
2021/01/08 05:41:08;;;;;;;;;;;3.20;80.60;;;;;;4909650;28;19927;-45
2021/01/08 05:43:34;;;;;;;;;;;3.20;81.00;;;;;;4908907;28;19953;-45
2021/01/08 05:46:27;;;;;;;;;;;3.20;81.10;;;;;;4909788;28;19934;-44
2021/01/08 05:48:57;;;;;;;;;;;3.20;81.30;;;;;;4906780;28;19985;-45
2021/01/08 05:51:24;;;;;;;;;;;3.20;81.40;;;;;;4911295;28;19934;-45
2021/01/08 05:53:52;;;;;;;;;;;3.20;81.70;;;;;;4908089;28;20374;-43
2021/01/08 05:56:19;;;;;;;;;;;3.30;81.50;;;;;;4912689;28;19934;-45
2021/01/08 05:58:45;;;;;;;;;;;3.30;81.50;;;;;;4909519;28;20617;-44
2021/01/08 06:01:13;;;;;;;;;;;3.30;81.70;;;;;;4894281;28;19941;-46
2021/01/08 06:03:42;;;;;;;;;;;3.20;81.90;;;;;;4908301;28;19961;-44
2021/01/08 06:06:10;;;;;;;;;;;3.20;81.90;;;;;;4905217;28;19942;-45
2021/01/08 06:08:38;;;;;;;;;;;3.20;81.90;;;;;;4919271;28;19940;-44
2021/01/08 06:11:06;;;;;;;;;;;3.20;82.20;;;;;;4908998;28;20012;-45
2021/01/08 06:13:33;;;;;;;;;;;3.10;82.30;;;;;;4907121;28;20286;-46
2021/01/08 06:16:03;;;;;;;;;;;3.10;82.50;;;;;;4912464;28;19988;-46
2021/01/08 06:18:34;;;;;;;;;;;3.10;82.50;;;;;;4891928;28;20029;-46
2021/01/08 06:21:05;;;;;;;;;;;3.10;82.40;;;;;;4910680;28;20298;-45
2021/01/08 06:23:32;;;;;;;;;;;3.10;82.40;;;;;;4909441;28;19937;-46
2021/01/08 06:25:59;;;;;;;;;;;3.10;82.40;;;;;;4887347;28;19930;-43
2021/01/08 06:28:32;;;;;;;;;;;3.10;82.60;;;;;;4882710;28;19937;-43
2021/01/08 06:30:59;;;;;;;;;;;3.20;82.30;;;;;;4911088;28;19934;-44
2021/01/08 06:33:33;;;;;;;;;;;3.20;82.10;;;;;;4922593;28;20501;-45
2021/01/08 06:36:10;;;;;;;;;;;3.20;82.10;;;;;;4910583;28;20030;-44
2021/01/08 06:38:36;;;;;;;;;;;3.20;82.20;;;;;;4911866;28;19926;-44
2021/01/08 06:41:09;;;;;;;;;;;3.20;82.20;;;;;;4908661;28;19941;-43
2021/01/08 06:43:36;;;;;;;;;;;3.10;82.10;;;;;;4909837;28;20013;-46
2021/01/08 06:46:04;;;;;;;;;;;3.10;82.30;;;;;;4909537;28;19996;-46
2021/01/08 06:48:37;;;;;;;;;;;3.20;82.20;;;;;;4911846;28;22316;-43
2021/01/08 06:51:04;;;;;;;;;;;3.20;82.20;;;;;;4905590;28;21602;-44
2021/01/08 06:53:31;;;;;;;;;;;3.20;82.20;;;;;;4912386;28;19938;-44
2021/01/08 06:56:02;;;;;;;;;;;3.10;82.20;;;;;;4905155;28;19926;-45
2021/01/08 06:58:29;;;;;;;;;;;3.10;82.30;;;;;;4908553;28;19930;-46
2021/01/08 07:00:59;;;;;;;;;;;3.10;82.30;;;;;;4907540;28;19930;-46
2021/01/08 07:03:26;;;;;;;;;;;3.20;82.10;;;;;;4908804;28;19971;-46
2021/01/08 07:05:54;;;;;;;;;;;3.10;82.20;;;;;;4907218;28;19933;-46
2021/01/08 07:08:32;;;;;;;;;;;3.10;82.40;;;;;;4906120;28;19929;-44
2021/01/08 07:10:58;;;;;;;;;;;3.10;82.30;;;;;;4909939;28;20013;-46
2021/01/08 07:13:27;;;;;;;;;;;3.10;82.40;;;;;;4903137;28;19941;-45
2021/01/08 07:15:53;;;;;;;;;;;3.10;82.20;;;;;;4907209;28;20276;-44
2021/01/08 07:18:23;;;;;;;;;;;3.10;82.30;;;;;;4917748;28;20434;-45
2021/01/08 07:20:57;;;;;;;;;;;3.00;82.50;;;;;;4909371;28;19934;-46
2021/01/08 07:23:43;;;;;;;;;;;3.10;82.50;;;;;;4909336;28;19934;-46
2021/01/08 07:26:12;;;;;;;;;;;3.10;82.10;;;;;;4910863;28;19993;-46
2021/01/08 07:28:38;;;;;;;;;;;3.10;82.20;;;;;;4907384;28;19977;-46
2021/01/08 07:31:09;;;;;;;;;;;3.10;82.20;;;;;;4909225;28;19949;-46
2021/01/08 07:33:42;;;;;;;;;;;3.20;82.10;;;;;;4908148;28;19933;-44
2021/01/08 07:36:18;;;;;;;;;;;3.20;81.70;;;;;;4911520;28;19930;-44
2021/01/08 07:38:45;;;;;;;;;;;3.20;81.90;;;;;;4907654;28;19937;-44
2021/01/08 07:41:11;;;;;;;;;;;3.20;81.80;;;;;;4913027;28;19934;-46
2021/01/08 07:43:37;;;;;;;;;;;3.20;81.30;;;;;;4906707;28;19934;-44
2021/01/08 07:46:04;;;;;;;;;;;3.20;81.70;;;;;;4914625;28;19977;-43
2021/01/08 07:48:34;;;;;;;;;;;3.20;81.50;;;;;;4911434;28;20334;-46
2021/01/08 07:51:07;;;;;;;;;;;3.20;81.30;;;;;;4923261;28;19941;-46
2021/01/08 07:53:53;;;;;;;;;;;3.20;81.40;;;;;;4903841;28;19930;-45
2021/01/08 07:56:26;;;;;;;;;;;3.30;81.30;;;;;;4928731;28;19932;-47
2021/01/08 07:58:53;;;;;;;;;;;3.30;81.20;;;;;;4912132;28;19977;-45
2021/01/08 08:01:24;;;;;;;;;;;3.30;81.10;;;;;;4912403;28;19926;-45
2021/01/08 08:03:58;;;;;;;;;;;3.20;81.10;;;;;;4910559;28;19941;-45
2021/01/08 08:06:26;;;;;;;;;;;3.20;81.00;;;;;;4910945;28;20370;-44
2021/01/08 08:08:52;;;;;;;;;;;3.30;81.00;;;;;;4909870;28;20021;-42
2021/01/08 08:11:24;;;;;;;;;;;3.30;80.80;;;;;;4907495;28;20908;-46
2021/01/08 08:13:50;;;;;;;;;;;3.30;80.80;;;;;;4896033;28;19933;-43
2021/01/08 08:16:34;;;;;;;;;;;3.30;80.60;;;;;;4908841;28;19926;-43
2021/01/08 08:19:02;;;;;;;;;;;3.30;80.50;;;;;;4911794;28;19938;-45
2021/01/08 08:21:28;;;;;;;;;;;3.40;80.50;;;;;;4909870;28;19953;-43
2021/01/08 08:23:57;;;;;;;;;;;3.30;80.60;;;;;;4910348;28;20267;-45
2021/01/08 08:26:24;;;;;;;;;;;3.30;80.70;;;;;;4918000;28;20283;-43
2021/01/08 08:29:17;;;;;;;;;;;3.30;80.60;;;;;;4917751;28;19949;-44
2021/01/08 08:31:46;;;;;;;;;;;3.40;80.70;;;;;;4915084;28;20275;-44
2021/01/08 08:34:24;;;;;;;;;;;3.40;80.60;;;;;;4914016;28;19926;-43
2021/01/08 08:36:50;;;;;;;;;;;3.40;80.60;;;;;;4909588;28;19926;-43
2021/01/08 08:39:16;;;;;;;;;;;3.40;80.70;;;;;;4912272;28;19934;-43
2021/01/08 08:41:44;;;;;;;;;;;3.40;80.80;;;;;;4919472;28;19930;-46
2021/01/08 08:44:13;;;;;;;;;;;3.40;80.70;;;;;;4891683;28;19941;-44
2021/01/08 08:46:39;;;;;;;;;;;3.40;80.70;;;;;;4913721;28;19926;-45
2021/01/08 08:49:09;;;;;;;;;;;3.40;80.70;;;;;;4917266;28;19934;-44
2021/01/08 08:51:39;;;;;;;;;;;3.40;80.30;;;;;;4918466;28;19938;-47
2021/01/08 08:54:05;;;;;;;;;;;3.50;80.30;;;;;;4912713;28;19930;-43
2021/01/08 08:56:31;;;;;;;;;;;3.50;80.30;;;;;;4898688;28;20013;-43
2021/01/08 08:58:57;;;;;;;;;;;3.50;80.30;;;;;;4916283;28;19933;-44
2021/01/08 09:01:36;;;;;;;;;;;3.50;80.20;;;;;;4915646;28;19934;-44
2021/01/08 09:04:03;;;;;;;;;;;3.60;80.20;;;;;;4913166;28;19933;-47
2021/01/08 09:06:32;;;;;;;;;;;3.60;80.00;;;;;;4914776;28;19941;-43
2021/01/08 09:08:59;;;;;;;;;;;3.70;79.80;;;;;;4912188;28;19926;-45
2021/01/08 09:11:29;;;;;;;;;;;3.70;79.70;;;;;;4917324;28;19927;-45
2021/01/08 09:13:55;;;;;;;;;;;3.70;79.70;;;;;;4917249;28;19926;-44
2021/01/08 09:16:40;;;;;;;;;;;3.70;79.80;;;;;;4914807;28;20577;-46
2021/01/08 09:19:08;;;;;;;;;;;3.70;79.70;;;;;;4915227;28;19941;-45
2021/01/08 09:21:40;;;;;;;;;;;3.70;79.90;;;;;;4907690;28;20397;-44
2021/01/08 09:24:10;;;;;;;;;;;3.70;79.90;;;;;;4927079;28;19941;-43
2021/01/08 09:26:37;;;;;;;;;;;3.70;79.80;;;;;;4912647;28;19940;-45
2021/01/08 09:29:04;;;;;;;;;;;3.70;79.80;;;;;;4907266;28;20675;-41
2021/01/08 09:31:43;;;;;;;;;;;3.70;79.60;;;;;;4907991;28;19937;-46
2021/01/08 09:34:11;;;;;;;;;;;3.70;79.60;;;;;;4904801;28;19933;-46
2021/01/08 09:36:38;;;;;;;;;;;3.80;79.40;;;;;;4912331;28;19930;-46
2021/01/08 09:39:06;;;;;;;;;;;3.80;79.40;;;;;;4910517;28;20405;-47
2021/01/08 09:41:36;;;;;;;;;;;3.80;79.40;;;;;;4912126;28;19935;-43
2021/01/08 09:44:04;;;;;;;;;;;3.80;79.20;;;;;;4914617;28;20474;-45
2021/01/08 09:46:48;;;;;;;;;;;3.80;79.00;;;;;;4911354;28;20387;-44
2021/01/08 09:49:15;;;;;;;;;;;3.80;78.90;;;;;;4914594;28;19942;-44
2021/01/08 09:51:41;;;;;;;;;;;3.80;78.90;;;;;;4910445;28;19944;-45
2021/01/08 09:54:07;;;;;;;;;;;3.90;79.00;;;;;;4909044;28;20470;-43
2021/01/08 09:56:34;;;;;;;;;;;3.90;78.80;;;;;;4906758;28;19933;-45
2021/01/08 09:59:14;;;;;;;;;;;4.00;78.50;;;;;;4907392;28;22672;-44
2021/01/08 10:01:41;;;;;;;;;;;4.00;78.30;;;;;;4920860;28;19934;-43
2021/01/08 10:04:08;;;;;;;;;;;4.10;78.40;;;;;;4914324;28;21092;-46
2021/01/08 10:06:35;;;;;;;;;;;4.10;78.40;;;;;;4907344;28;20016;-43
2021/01/08 10:09:02;;;;;;;;;;;4.20;78.20;;;;;;4907626;28;19940;-44
2021/01/08 10:11:28;;;;;;;;;;;4.20;78.10;;;;;;4914098;28;20299;-47
2021/01/08 10:14:04;;;;;;;;;;;4.20;77.80;;;;;;4927551;28;19934;-45
2021/01/08 10:16:38;;;;;;;;;;;4.30;77.50;;;;;;4912772;28;19944;-43
2021/01/08 10:19:07;;;;;;;;;;;4.30;77.50;;;;;;4915265;28;19933;-45
2021/01/08 10:21:40;;;;;;;;;;;4.30;77.30;;;;;;4913444;28;20044;-45
2021/01/08 10:24:07;;;;;;;;;;;4.30;77.60;;;;;;4913131;28;19929;-46
2021/01/08 10:26:34;;;;;;;;;;;4.40;77.50;;;;;;4890622;28;19937;-45
2021/01/08 10:29:04;;;;;;;;;;;4.40;77.40;;;;;;4911467;28;19969;-45
2021/01/08 10:31:30;;;;;;;;;;;4.40;77.30;;;;;;4906428;28;19935;-45
2021/01/08 10:33:59;;;;;;;;;;;4.40;77.20;;;;;;4910791;28;19926;-44
2021/01/08 10:36:25;;;;;;;;;;;4.40;77.20;;;;;;4910753;28;19934;-44
2021/01/08 10:38:51;;;;;;;;;;;4.50;77.10;;;;;;4913971;28;22627;-44
2021/01/08 10:41:18;;;;;;;;;;;4.60;77.20;;;;;;4915314;28;19926;-44
2021/01/08 10:43:44;;;;;;;;;;;4.50;76.80;;;;;;4925681;28;19970;-46
2021/01/08 10:46:11;;;;;;;;;;;4.60;76.60;;;;;;4910928;28;20378;-46
2021/01/08 10:48:41;;;;;;;;;;;4.50;76.60;;;;;;4910280;28;19938;-46
2021/01/08 10:51:07;;;;;;;;;;;4.60;76.70;;;;;;4904771;28;19946;-45
2021/01/08 10:53:34;;;;;;;;;;;4.60;76.40;;;;;;4909893;28;19949;-44
2021/01/08 10:56:01;;;;;;;;;;;4.60;76.60;;;;;;4911295;28;21743;-45
2021/01/08 10:58:27;;;;;;;;;;;4.60;76.50;;;;;;4909644;28;20355;-44
2021/01/08 11:00:54;;;;;;;;;;;4.60;76.40;;;;;;4907739;28;20024;-45
2021/01/08 11:03:21;;;;;;;;;;;4.60;76.60;;;;;;4912788;28;19934;-44
2021/01/08 11:05:49;;;;;;;;;;;4.70;76.50;;;;;;4911732;28;20293;-46
2021/01/08 11:08:18;;;;;;;;;;;4.80;76.30;;;;;;4908688;28;19927;-46
2021/01/08 11:10:44;;;;;;;;;;;4.90;75.70;;;;;;4908267;28;19934;-44
2021/01/08 11:13:10;;;;;;;;;;;4.90;75.60;;;;;;4906332;28;19984;-46
2021/01/08 11:15:36;;;;;;;;;;;4.90;75.80;;;;;;4910858;28;20319;-43
2021/01/08 11:18:04;;;;;;;;;;;4.90;75.60;;;;;;4907654;28;19927;-45
2021/01/08 11:20:33;;;;;;;;;;;4.90;75.30;;;;;;4907888;28;20390;-45
2021/01/08 11:23:02;;;;;;;;;;;5.00;75.40;;;;;;4908311;28;19934;-43
2021/01/08 11:25:28;;;;;;;;;;;5.00;74.50;;;;;;4919069;28;19941;-43
2021/01/08 11:27:55;;;;;;;;;;;5.00;74.90;;;;;;4909965;28;20474;-47
2021/01/08 11:30:21;;;;;;;;;;;5.10;74.80;;;;;;4897468;28;19934;-47
2021/01/08 11:32:47;;;;;;;;;;;5.10;74.60;;;;;;4907604;28;19934;-45
2021/01/08 11:35:17;;;;;;;;;;;5.20;74.10;;;;;;4906740;28;19930;-45
2021/01/08 11:37:43;;;;;;;;;;;5.30;73.70;;;;;;4912883;28;20321;-45
2021/01/08 11:40:09;;;;;;;;;;;5.30;73.70;;;;;;4911050;28;20037;-44
2021/01/08 11:42:36;;;;;;;;;;;5.30;73.90;;;;;;4907315;28;19934;-44
2021/01/08 11:45:03;;;;;;;;;;;5.30;73.80;;;;;;4899490;28;20423;-45
2021/01/08 11:47:33;;;;;;;;;;;5.30;73.70;;;;;;4901312;28;19941;-43
2021/01/08 11:50:03;;;;;;;;;;;5.30;73.10;;;;;;4907405;28;20729;-43
2021/01/08 11:52:30;;;;;;;;;;;5.30;73.00;;;;;;4906869;28;19934;-44
2021/01/08 11:54:56;;;;;;;;;;;5.30;73.10;;;;;;4908464;28;24688;-46
2021/01/08 11:57:22;;;;;;;;;;;5.30;73.20;;;;;;4899344;28;19975;-43
2021/01/08 11:59:50;;;;;;;;;;;5.30;73.30;;;;;;4925772;28;19930;-46
2021/01/08 12:02:17;;;;;;;;;;;5.30;73.30;;;;;;4906091;28;19941;-45
2021/01/08 12:04:46;;;;;;;;;;;5.40;73.10;;;;;;4915334;28;19940;-44
2021/01/08 12:07:13;;;;;;;;;;;5.40;73.10;;;;;;4898985;28;20107;-46
2021/01/08 12:09:39;;;;;;;;;;;5.40;73.10;;;;;;4910578;28;19940;-44
2021/01/08 12:12:09;;;;;;;;;;;5.40;72.80;;;;;;4914359;28;19930;-44
2021/01/08 12:14:35;;;;;;;;;;;5.40;72.60;;;;;;4916376;28;19926;-43
2021/01/08 12:17:02;;;;;;;;;;;5.40;72.20;;;;;;4912354;28;19942;-43
2021/01/08 12:19:29;;;;;;;;;;;5.30;72.20;;;;;;4914315;28;19980;-43
2021/01/08 12:21:55;;;;;;;;;;;5.30;71.90;;;;;;4912939;28;20076;-44
2021/01/08 12:24:22;;;;;;;;;;;5.30;71.90;;;;;;4912201;28;19930;-44
2021/01/08 12:26:52;;;;;;;;;;;5.30;72.00;;;;;;4917174;28;20338;-43
2021/01/08 12:29:20;;;;;;;;;;;5.40;72.00;;;;;;4914085;28;20009;-44
2021/01/08 12:31:46;;;;;;;;;;;5.40;72.00;;;;;;4914737;28;19952;-44
2021/01/08 12:34:14;;;;;;;;;;;5.40;72.10;;;;;;4916820;28;19934;-44
2021/01/08 12:36:40;;;;;;;;;;;5.40;71.90;;;;;;4916822;28;19969;-44
2021/01/08 12:39:07;;;;;;;;;;;5.50;71.90;;;;;;4916893;28;19956;-43
2021/01/08 12:41:34;;;;;;;;;;;5.50;71.70;;;;;;4916063;28;20385;-43
2021/01/08 12:44:00;;;;;;;;;;;5.50;71.60;;;;;;4915369;28;19937;-44
2021/01/08 12:46:26;;;;;;;;;;;5.40;71.30;;;;;;4909176;28;20089;-45
2021/01/08 12:48:53;;;;;;;;;;;5.40;71.40;;;;;;4918914;28;20109;-42
2021/01/08 12:51:19;;;;;;;;;;;5.30;71.80;;;;;;4915043;28;20486;-45
2021/01/08 12:53:47;;;;;;;;;;;5.30;71.80;;;;;;4907448;28;19986;-44
2021/01/08 12:56:14;;;;;;;;;;;5.40;71.70;;;;;;4906569;28;20077;-43
2021/01/08 12:58:41;;;;;;;;;;;5.40;71.90;;;;;;4916206;28;19934;-45
2021/01/08 13:01:07;;;;;;;;;;;5.40;72.00;;;;;;4909785;28;19942;-44
2021/01/08 13:03:34;;;;;;;;;;;5.40;71.90;;;;;;4912247;28;19933;-43
2021/01/08 13:06:03;;;;;;;;;;;5.30;72.00;;;;;;4910860;28;19938;-43
2021/01/08 13:08:29;;;;;;;;;;;5.30;72.20;;;;;;4910958;28;19945;-45
2021/01/08 13:10:55;;;;;;;;;;;5.30;72.30;;;;;;4913805;28;20319;-44
2021/01/08 13:13:22;;;;;;;;;;;5.30;72.20;;;;;;4912522;28;19934;-44
2021/01/08 13:15:48;;;;;;;;;;;5.30;72.40;;;;;;4912651;28;19926;-44
2021/01/08 13:18:15;;;;;;;;;;;5.30;72.30;;;;;;4916599;28;19933;-44
2021/01/08 13:20:41;;;;;;;;;;;5.20;72.30;;;;;;4913592;28;20290;-45
2021/01/08 13:23:08;;;;;;;;;;;5.20;72.30;;;;;;4917843;28;19934;-45
2021/01/08 13:25:40;;;;;;;;;;;5.20;72.10;;;;;;4911031;28;19933;-46
2021/01/08 13:28:06;;;;;;;;;;;5.20;72.20;;;;;;4907564;28;19940;-43
2021/01/08 13:30:33;;;;;;;;;;;5.20;72.40;;;;;;4914045;28;22992;-45
2021/01/08 13:33:00;;;;;;;;;;;5.20;72.60;;;;;;4908667;28;19937;-45
2021/01/08 13:35:29;;;;;;;;;;;5.10;72.90;;;;;;4916443;28;20065;-43
2021/01/08 13:37:55;;;;;;;;;;;5.10;73.00;;;;;;4911669;28;19926;-45
2021/01/08 13:40:22;;;;;;;;;;;5.10;73.10;;;;;;4914681;28;19926;-44
2021/01/08 13:42:49;;;;;;;;;;;5.10;73.10;;;;;;4913354;28;19934;-45
2021/01/08 13:45:15;;;;;;;;;;;5.10;73.00;;;;;;4912285;28;20374;-45
2021/01/08 13:47:41;;;;;;;;;;;5.10;73.10;;;;;;4924789;28;19964;-46
2021/01/08 13:50:10;;;;;;;;;;;5.10;73.10;;;;;;4906619;28;19930;-43
2021/01/08 13:52:37;;;;;;;;;;;5.10;73.40;;;;;;4914681;28;25518;-45
2021/01/08 13:55:05;;;;;;;;;;;5.10;73.40;;;;;;4907839;28;19933;-43
2021/01/08 13:57:31;;;;;;;;;;;5.00;73.50;;;;;;4928518;28;19941;-43
2021/01/08 13:59:58;;;;;;;;;;;5.10;73.20;;;;;;4924835;28;19992;-44
2021/01/08 14:02:24;;;;;;;;;;;5.10;73.50;;;;;;4912918;28;19933;-43
2021/01/08 14:04:55;;;;;;;;;;;5.10;73.50;;;;;;4911118;28;20293;-44
2021/01/08 14:07:22;;;;;;;;;;;5.20;73.20;;;;;;4909990;28;20428;-43
2021/01/08 14:09:49;;;;;;;;;;;5.20;73.30;;;;;;4912115;28;20374;-43
2021/01/08 14:12:16;;;;;;;;;;;5.20;73.40;;;;;;4910888;28;19933;-45
2021/01/08 14:14:42;;;;;;;;;;;5.30;73.40;;;;;;4914883;28;19930;-45
2021/01/08 14:17:11;;;;;;;;;;;5.30;73.30;;;;;;4913430;28;19930;-43
2021/01/08 14:19:38;;;;;;;;;;;5.40;73.30;;;;;;4912100;28;19926;-44
2021/01/08 14:22:05;;;;;;;;;;;5.40;73.20;;;;;;4901125;28;19949;-46
2021/01/08 14:24:31;;;;;;;;;;;5.40;73.00;;;;;;4914531;28;19962;-44
2021/01/08 14:27:01;;;;;;;;;;;5.40;72.70;;;;;;4915752;28;20457;-44
2021/01/08 14:29:28;;;;;;;;;;;5.30;72.40;;;;;;4913911;28;19934;-43
2021/01/08 14:31:55;;;;;;;;;;;5.30;72.60;;;;;;4908449;28;19961;-43
2021/01/08 14:34:23;;;;;;;;;;;5.40;72.70;;;;;;4911285;28;19932;-46
2021/01/08 14:36:50;;;;;;;;;;;5.40;72.80;;;;;;4913616;28;20433;-45